createdAt,value
2017-12-24T00:02:09.088Z,2.25
2017-12-24T00:04:42.828Z,1.83
2017-12-24T00:07:16.576Z,1.70
2017-12-24T00:09:51.144Z,2.05
2017-12-24T00:12:24.996Z,2.20
2017-12-24T00:14:58.824Z,1.77
2017-12-24T00:17:33.650Z,2.03
2017-12-24T00:20:07.364Z,2.03
2017-12-24T00:22:41.468Z,1.92
2017-12-24T00:25:15.252Z,2.05
2017-12-24T00:27:49.096Z,1.98
2017-12-24T00:30:22.693Z,1.40
2017-12-24T00:32:57.192Z,1.80
2017-12-24T00:35:30.917Z,2.00
2017-12-24T00:38:04.649Z,1.75
2017-12-24T00:40:38.404Z,1.50
2017-12-24T00:43:12.918Z,1.83
2017-12-24T00:45:46.615Z,1.90
2017-12-24T00:48:21.168Z,1.67
2017-12-24T00:50:54.796Z,1.60
2017-12-24T00:53:28.668Z,1.80
2017-12-24T00:56:02.505Z,1.65
2017-12-24T00:58:36.318Z,1.70
2017-12-24T01:01:10.121Z,1.90
2017-12-24T01:03:44.012Z,1.85
2017-12-24T01:06:18.531Z,2.10
2017-12-24T01:08:52.342Z,1.90
2017-12-24T01:11:26.865Z,2.58
2017-12-24T01:14:01.300Z,1.98
2017-12-24T01:16:35.903Z,1.60
2017-12-24T01:19:10.498Z,1.60
2017-12-24T01:21:44.474Z,1.62
2017-12-24T01:24:19.141Z,1.75
2017-12-24T01:26:52.900Z,1.58
2017-12-24T01:29:26.700Z,1.45
2017-12-24T01:32:01.193Z,1.10
2017-12-24T01:34:35.121Z,1.30
2017-12-24T01:37:08.810Z,1.10
2017-12-24T01:39:42.619Z,1.12
2017-12-24T01:42:16.395Z,1.15
2017-12-24T01:44:50.930Z,1.40
2017-12-24T01:47:24.653Z,0.93
2017-12-24T01:49:58.457Z,1.00
2017-12-24T01:52:32.258Z,1.30
2017-12-24T01:55:06.285Z,1.20
2017-12-24T01:57:40.028Z,1.20
2017-12-24T02:00:13.985Z,1.60
2017-12-24T02:02:47.692Z,1.05
2017-12-24T02:05:21.473Z,1.55
2017-12-24T02:07:55.994Z,1.10
2017-12-24T02:10:29.840Z,1.42
2017-12-24T02:13:04.340Z,1.30
2017-12-24T02:15:38.116Z,1.30
2017-12-24T02:18:11.866Z,1.10
2017-12-24T02:20:45.696Z,0.98
2017-12-24T02:23:19.584Z,1.35
2017-12-24T02:25:54.079Z,0.98
2017-12-24T02:28:27.883Z,1.20
2017-12-24T02:31:01.680Z,1.08
2017-12-24T02:33:35.248Z,1.23
2017-12-24T02:36:09.193Z,0.90
2017-12-24T02:38:43.057Z,1.52
2017-12-24T02:41:17.782Z,1.15
2017-12-24T02:43:51.572Z,1.00
2017-12-24T02:46:25.333Z,1.15
2017-12-24T02:48:59.208Z,1.33
2017-12-24T02:51:34.253Z,0.95
2017-12-24T02:54:07.977Z,1.20
2017-12-24T02:56:42.522Z,1.33
2017-12-24T02:59:16.543Z,1.42
2017-12-24T03:01:50.289Z,1.05
2017-12-24T03:04:24.057Z,1.42
2017-12-24T03:06:57.735Z,1.10
2017-12-24T03:09:32.250Z,1.20
2017-12-24T03:12:05.975Z,1.20
2017-12-24T03:14:39.720Z,0.98
2017-12-24T03:17:13.416Z,1.40
2017-12-24T03:19:47.876Z,1.05
2017-12-24T03:22:21.767Z,1.25
2017-12-24T03:24:55.493Z,0.90
2017-12-24T03:27:29.165Z,1.20
2017-12-24T03:30:04.829Z,1.50
2017-12-24T03:32:38.650Z,1.33
2017-12-24T03:35:12.360Z,1.48
2017-12-24T03:37:46.059Z,1.62
2017-12-24T03:40:19.744Z,1.50
2017-12-24T03:42:53.604Z,1.00
2017-12-24T03:45:27.504Z,1.27
2017-12-24T03:48:01.244Z,1.30
2017-12-24T03:50:34.990Z,1.10
2017-12-24T03:53:09.852Z,1.10
2017-12-24T03:55:43.524Z,1.10
2017-12-24T03:58:17.377Z,0.90
2017-12-24T04:00:51.164Z,1.12
2017-12-24T04:03:25.640Z,1.70
2017-12-24T04:05:59.427Z,2.37
2017-12-24T04:08:33.876Z,1.45
2017-12-24T04:11:07.674Z,1.50
2017-12-24T04:13:42.170Z,0.82
2017-12-24T04:16:16.256Z,1.35
2017-12-24T04:18:49.984Z,1.20
2017-12-24T04:21:25.096Z,1.12
2017-12-24T04:23:58.692Z,1.00
2017-12-24T04:26:32.499Z,1.25
2017-12-24T04:29:06.052Z,1.20
2017-12-24T04:31:40.717Z,1.40
2017-12-24T04:34:14.474Z,1.42
2017-12-24T04:36:48.957Z,1.50
2017-12-24T04:39:22.731Z,1.15
2017-12-24T04:41:56.607Z,1.50
2017-12-24T04:44:30.384Z,1.17
2017-12-24T04:47:04.491Z,1.00
2017-12-24T04:49:38.297Z,1.10
2017-12-24T04:52:12.133Z,1.00
2017-12-24T04:54:46.017Z,1.20
2017-12-24T04:57:19.827Z,1.27
2017-12-24T04:59:53.537Z,2.87
2017-12-24T05:02:27.406Z,1.20
2017-12-24T05:05:01.180Z,1.40
2017-12-24T05:07:34.957Z,1.90
2017-12-24T05:10:08.605Z,1.67
2017-12-24T05:12:42.472Z,2.35
2017-12-24T05:15:16.276Z,1.60
2017-12-24T05:17:50.791Z,1.73
2017-12-24T05:20:24.357Z,1.62
2017-12-24T05:22:58.115Z,1.52
2017-12-24T05:25:31.984Z,1.50
2017-12-24T05:28:06.885Z,1.90
2017-12-24T05:30:40.622Z,1.73
2017-12-24T05:33:14.603Z,1.77
2017-12-24T05:35:48.400Z,2.12
2017-12-24T05:38:22.207Z,1.45
2017-12-24T05:40:55.989Z,2.00
2017-12-24T05:43:30.545Z,1.87
2017-12-24T05:46:04.406Z,1.42
2017-12-24T05:48:38.181Z,1.73
2017-12-24T05:51:12.004Z,1.60
2017-12-24T05:53:46.929Z,1.80
2017-12-24T05:56:20.580Z,1.35
2017-12-24T05:58:54.355Z,1.20
2017-12-24T06:01:28.029Z,1.33
2017-12-24T06:04:01.825Z,1.10
2017-12-24T06:06:35.628Z,1.60
2017-12-24T06:09:09.457Z,1.80
2017-12-24T06:11:43.321Z,1.50
2017-12-24T06:14:17.113Z,1.30
2017-12-24T06:16:51.696Z,1.60
2017-12-24T06:19:25.536Z,1.20
2017-12-24T06:21:59.328Z,1.50
2017-12-24T06:24:33.917Z,1.23
2017-12-24T06:27:07.754Z,1.40
2017-12-24T06:29:41.582Z,1.48
2017-12-24T06:32:15.352Z,1.40
2017-12-24T06:34:49.184Z,1.20
2017-12-24T06:37:23.008Z,1.50
2017-12-24T06:39:56.859Z,1.30
2017-12-24T06:42:30.681Z,1.12
2017-12-24T06:45:04.401Z,1.08
2017-12-24T06:47:38.132Z,1.20
2017-12-24T06:50:13.417Z,1.00
2017-12-24T06:52:47.180Z,0.88
2017-12-24T06:55:21.904Z,0.80
2017-12-24T06:57:55.556Z,1.33
2017-12-24T07:00:29.304Z,0.95
2017-12-24T07:03:03.773Z,0.77
2017-12-24T07:05:38.536Z,0.80
2017-12-24T07:08:12.377Z,0.90
2017-12-24T07:10:46.516Z,1.20
2017-12-24T07:13:20.239Z,1.02
2017-12-24T07:15:54.085Z,1.23
2017-12-24T07:18:27.875Z,1.25
2017-12-24T07:21:01.681Z,1.10
2017-12-24T07:23:36.159Z,1.33
2017-12-24T07:26:10.708Z,2.00
2017-12-24T07:28:45.316Z,2.55
2017-12-24T07:31:19.050Z,1.70
2017-12-24T07:33:53.621Z,1.50
2017-12-24T07:36:27.685Z,1.52
2017-12-24T07:39:01.466Z,1.60
2017-12-24T07:41:35.300Z,1.73
2017-12-24T07:44:09.144Z,1.25
2017-12-24T07:46:44.021Z,1.27
2017-12-24T07:49:18.165Z,1.23
2017-12-24T07:51:51.932Z,1.60
2017-12-24T07:54:25.747Z,1.52
2017-12-24T07:56:59.568Z,1.42
2017-12-24T07:59:33.355Z,1.40
2017-12-24T08:02:07.100Z,1.60
2017-12-24T08:04:41.280Z,1.73
2017-12-24T08:07:15.872Z,1.77
2017-12-24T08:09:49.916Z,1.85
2017-12-24T08:12:23.616Z,1.40
2017-12-24T08:14:57.460Z,1.80
2017-12-24T08:17:31.216Z,1.48
2017-12-24T08:20:04.972Z,1.65
2017-12-24T08:22:38.853Z,1.50
2017-12-24T08:25:12.676Z,1.73
2017-12-24T08:27:46.287Z,1.52
2017-12-24T08:30:20.141Z,1.58
2017-12-24T08:32:53.931Z,1.27
2017-12-24T08:35:28.497Z,1.10
2017-12-24T08:38:02.367Z,1.27
2017-12-24T08:40:36.000Z,1.00
2017-12-24T08:43:09.780Z,1.37
2017-12-24T08:45:43.795Z,1.50
2017-12-24T08:48:17.503Z,1.20
2017-12-24T08:50:51.301Z,0.73
2017-12-24T08:53:24.988Z,1.50
2017-12-24T08:55:59.549Z,1.10
2017-12-24T08:58:33.360Z,1.00
2017-12-24T09:01:07.060Z,1.02
2017-12-24T09:03:40.837Z,2.25
2017-12-24T09:06:14.711Z,1.40
2017-12-24T09:08:48.489Z,1.30
2017-12-24T09:11:23.003Z,1.55
2017-12-24T09:13:56.722Z,1.17
2017-12-24T09:16:30.381Z,1.37
2017-12-24T09:19:04.128Z,1.35
2017-12-24T09:21:37.937Z,1.33
2017-12-24T09:24:11.708Z,1.25
2017-12-24T09:26:45.597Z,1.20
2017-12-24T09:29:19.385Z,1.60
2017-12-24T09:31:53.433Z,1.48
2017-12-24T09:34:27.178Z,2.30
2017-12-24T09:37:00.928Z,1.95
2017-12-24T09:39:34.769Z,2.37
2017-12-24T09:42:08.432Z,1.30
2017-12-24T09:44:42.213Z,1.73
2017-12-24T09:47:15.984Z,1.67
2017-12-24T09:49:49.763Z,1.35
2017-12-24T09:52:24.324Z,1.40
2017-12-24T09:54:58.011Z,1.40
2017-12-24T09:57:31.775Z,1.37
2017-12-24T10:00:05.628Z,3.75
2017-12-24T10:02:40.028Z,3.30
2017-12-24T10:05:14.571Z,1.40
2017-12-24T10:07:48.245Z,1.50
2017-12-24T10:10:22.000Z,1.42
2017-12-24T10:12:55.713Z,1.10
2017-12-24T10:15:29.463Z,2.10
2017-12-24T10:18:03.200Z,1.55
2017-12-24T10:20:37.676Z,1.70
2017-12-24T10:23:11.734Z,1.50
2017-12-24T10:25:45.513Z,1.02
2017-12-24T10:28:19.345Z,1.40
2017-12-24T10:30:53.156Z,1.80
2017-12-24T10:33:27.259Z,1.62
2017-12-24T10:36:00.828Z,1.85
2017-12-24T10:38:34.790Z,2.40
2017-12-24T10:41:08.616Z,2.45
2017-12-24T10:43:42.412Z,1.10
2017-12-24T10:46:16.119Z,1.37
2017-12-24T10:48:50.839Z,1.20
2017-12-24T10:51:24.653Z,1.05
2017-12-24T10:53:58.838Z,1.60
2017-12-24T10:56:33.416Z,1.00
2017-12-24T10:59:08.108Z,1.80
2017-12-24T11:01:42.716Z,1.30
2017-12-24T11:04:16.504Z,1.12
2017-12-24T11:06:51.133Z,0.80
2017-12-24T11:09:25.846Z,1.00
2017-12-24T11:11:59.762Z,1.15
2017-12-24T11:14:33.329Z,1.40
2017-12-24T11:17:07.193Z,1.02
2017-12-24T11:19:40.883Z,1.95
2017-12-24T11:22:15.499Z,1.48
2017-12-24T11:24:50.028Z,0.95
2017-12-24T11:27:24.497Z,0.90
2017-12-24T11:29:58.129Z,1.20
2017-12-24T11:32:32.635Z,1.10
2017-12-24T11:35:06.368Z,1.20
2017-12-24T11:37:39.980Z,1.25
2017-12-24T11:40:14.938Z,1.20
2017-12-24T11:42:48.581Z,1.87
2017-12-24T11:45:23.043Z,1.50
2017-12-24T11:47:56.792Z,1.00
2017-12-24T11:50:31.386Z,1.42
2017-12-24T11:53:05.076Z,1.92
2017-12-24T11:55:38.917Z,1.62
2017-12-24T11:58:12.728Z,1.70
2017-12-24T12:00:46.443Z,1.30
2017-12-24T12:03:20.182Z,3.53
2017-12-24T12:05:54.846Z,1.15
2017-12-24T12:08:28.639Z,1.50
2017-12-24T12:11:03.328Z,0.95
2017-12-24T12:13:37.021Z,1.30
2017-12-24T12:16:11.598Z,1.55
2017-12-24T12:18:46.148Z,0.98
2017-12-24T12:21:20.073Z,1.50
2017-12-24T12:23:53.863Z,1.20
2017-12-24T12:26:27.608Z,1.60
2017-12-24T12:29:01.345Z,1.20
2017-12-24T12:31:35.042Z,1.25
2017-12-24T12:34:08.800Z,1.35
2017-12-24T12:36:42.776Z,0.80
2017-12-24T12:39:16.500Z,1.50
2017-12-24T12:41:50.244Z,1.02
2017-12-24T12:44:24.021Z,1.87
2017-12-24T12:46:57.764Z,1.40
2017-12-24T12:49:31.595Z,1.83
2017-12-24T12:52:05.331Z,2.00
2017-12-24T12:54:40.248Z,1.70
2017-12-24T12:57:13.914Z,2.25
2017-12-24T12:59:47.760Z,1.23
2017-12-24T13:02:21.388Z,1.10
2017-12-24T13:04:55.162Z,1.55
2017-12-24T13:07:28.928Z,1.50
2017-12-24T13:10:02.610Z,1.30
2017-12-24T13:12:36.292Z,1.15
2017-12-24T13:15:10.105Z,1.25
2017-12-24T13:17:43.865Z,1.77
2017-12-24T13:20:18.262Z,1.58
2017-12-24T13:22:51.884Z,1.30
2017-12-24T13:25:25.838Z,1.92
2017-12-24T13:27:59.436Z,2.00
2017-12-24T13:30:33.192Z,1.70
2017-12-24T13:33:07.052Z,1.85
2017-12-24T13:35:40.886Z,1.33
2017-12-24T13:38:14.624Z,1.70
2017-12-24T13:40:48.401Z,2.62
2017-12-24T13:43:22.243Z,1.52
2017-12-24T13:45:56.841Z,1.83
2017-12-24T13:48:30.468Z,1.90
2017-12-24T13:51:04.974Z,1.62
2017-12-24T13:53:38.552Z,1.83
2017-12-24T13:56:12.484Z,3.70
2017-12-24T13:58:46.981Z,2.35
2017-12-24T14:01:20.762Z,1.55
2017-12-24T14:03:54.483Z,2.40
2017-12-24T14:06:28.328Z,1.80
2017-12-24T14:09:02.094Z,1.70
2017-12-24T14:11:36.153Z,1.62
2017-12-24T14:14:10.627Z,2.12
2017-12-24T14:16:45.087Z,2.80
2017-12-24T14:19:18.792Z,1.80
2017-12-24T14:21:52.508Z,1.85
2017-12-24T14:24:26.280Z,2.20
2017-12-24T14:27:00.412Z,2.05
2017-12-24T14:29:34.904Z,2.30
2017-12-24T14:32:08.944Z,2.00
2017-12-24T14:34:42.651Z,1.70
2017-12-24T14:37:16.479Z,1.87
2017-12-24T14:39:50.457Z,1.80
2017-12-24T14:42:24.269Z,1.77
2017-12-24T14:44:58.673Z,3.10
2017-12-24T14:47:33.172Z,2.15
2017-12-24T14:50:07.028Z,1.92
2017-12-24T14:52:41.502Z,2.00
2017-12-24T14:55:16.005Z,2.20
2017-12-24T14:57:49.825Z,2.30
2017-12-24T15:00:23.567Z,2.55
2017-12-24T15:02:57.361Z,2.22
2017-12-24T15:05:31.136Z,2.03
2017-12-24T15:08:05.573Z,1.92
2017-12-24T15:10:39.337Z,3.53
2017-12-24T15:13:13.957Z,2.30
2017-12-24T15:15:47.651Z,1.52
2017-12-24T15:18:21.425Z,2.10
2017-12-24T15:20:55.125Z,1.70
2017-12-24T15:23:29.081Z,2.22
2017-12-24T15:26:02.940Z,2.92
2017-12-24T15:28:37.456Z,2.12
2017-12-24T15:31:11.233Z,2.85
2017-12-24T15:33:45.690Z,2.35
2017-12-24T15:36:19.440Z,1.90
2017-12-24T15:38:53.181Z,2.50
2017-12-24T15:41:27.744Z,2.45
2017-12-24T15:44:01.425Z,2.80
2017-12-24T15:46:35.205Z,2.10
2017-12-24T15:49:09.800Z,2.25
2017-12-24T15:51:43.851Z,2.67
2017-12-24T15:54:18.281Z,2.67
2017-12-24T15:56:52.024Z,1.80
2017-12-24T15:59:25.832Z,2.10
2017-12-24T16:02:00.429Z,2.00
2017-12-24T16:04:34.252Z,3.35
2017-12-24T16:07:08.064Z,2.20
2017-12-24T16:09:41.670Z,2.70
2017-12-24T16:12:15.784Z,3.08
2017-12-24T16:14:49.588Z,2.10
2017-12-24T16:17:23.392Z,2.22
2017-12-24T16:19:57.175Z,2.37
2017-12-24T16:22:30.961Z,3.20
2017-12-24T16:25:04.787Z,3.12
2017-12-24T16:27:38.828Z,3.12
2017-12-24T16:30:12.687Z,2.10
2017-12-24T16:32:46.425Z,2.35
2017-12-24T16:35:21.260Z,3.08
2017-12-24T16:37:54.933Z,2.83
2017-12-24T16:40:28.809Z,3.17
2017-12-24T16:43:02.528Z,3.15
2017-12-24T16:45:36.295Z,2.80
2017-12-24T16:48:10.133Z,2.50
2017-12-24T16:50:43.924Z,2.20
2017-12-24T16:53:18.277Z,2.65
2017-12-24T16:55:52.330Z,2.75
2017-12-24T16:58:26.805Z,2.97
2017-12-24T17:01:00.612Z,2.70
2017-12-24T17:03:34.274Z,3.45
2017-12-24T17:06:08.901Z,4.57
2017-12-24T17:08:42.718Z,3.15
2017-12-24T17:11:16.758Z,2.42
2017-12-24T17:13:50.396Z,2.53
2017-12-24T17:16:24.244Z,3.10
2017-12-24T17:18:57.956Z,2.42
2017-12-24T17:21:31.773Z,3.10
2017-12-24T17:24:05.524Z,2.30
2017-12-24T17:26:39.409Z,2.35
2017-12-24T17:29:13.143Z,2.80
2017-12-24T17:31:46.925Z,2.83
2017-12-24T17:34:20.641Z,3.00
2017-12-24T17:36:54.373Z,2.80
2017-12-24T17:39:28.131Z,3.10
2017-12-24T17:42:02.039Z,2.85
2017-12-24T17:44:35.761Z,3.78
2017-12-24T17:47:09.758Z,2.50
2017-12-24T17:49:43.416Z,3.87
2017-12-24T17:52:18.013Z,2.20
2017-12-24T17:54:52.535Z,3.00
2017-12-24T17:57:26.265Z,2.92
2017-12-24T18:00:00.024Z,2.75
2017-12-24T18:02:34.621Z,2.60
2017-12-24T18:05:08.389Z,2.30
2017-12-24T18:07:42.176Z,2.17
2017-12-24T18:10:15.884Z,3.30
2017-12-24T18:12:49.677Z,3.40
2017-12-24T18:15:23.505Z,3.30
2017-12-24T18:17:58.177Z,2.65
2017-12-24T18:20:32.018Z,3.45
2017-12-24T18:23:06.589Z,3.78
2017-12-24T18:25:40.332Z,3.97
2017-12-24T18:28:14.141Z,3.15
2017-12-24T18:30:48.820Z,3.20
2017-12-24T18:33:22.746Z,2.75
2017-12-24T18:35:56.917Z,3.30
2017-12-24T18:38:30.787Z,3.00
2017-12-24T18:41:05.497Z,3.47
2017-12-24T18:43:39.316Z,3.00
2017-12-24T18:46:13.025Z,3.53
2017-12-24T18:48:46.814Z,2.85
2017-12-24T18:51:20.681Z,2.90
2017-12-24T18:53:54.486Z,3.20
2017-12-24T18:56:28.313Z,3.10
2017-12-24T18:59:02.889Z,2.95
2017-12-24T19:01:36.756Z,3.10
2017-12-24T19:04:11.293Z,2.85
2017-12-24T19:06:45.108Z,3.00
2017-12-24T19:09:18.940Z,2.83
2017-12-24T19:11:53.505Z,2.80
2017-12-24T19:14:27.275Z,2.53
2017-12-24T19:17:01.084Z,3.50
2017-12-24T19:19:34.769Z,3.15
2017-12-24T19:22:08.469Z,3.37
2017-12-24T19:24:42.272Z,3.25
2017-12-24T19:27:17.658Z,3.62
2017-12-24T19:29:51.526Z,3.10
2017-12-24T19:32:26.042Z,2.65
2017-12-24T19:34:59.864Z,3.40
2017-12-24T19:37:33.660Z,2.42
2017-12-24T19:40:07.532Z,7.05
2017-12-24T19:42:41.269Z,2.90
2017-12-24T19:45:15.064Z,3.75
2017-12-24T19:47:48.701Z,3.72
2017-12-24T19:50:22.486Z,3.17
2017-12-24T19:52:56.325Z,3.12
2017-12-24T19:55:30.314Z,3.10
2017-12-24T19:58:04.228Z,4.10
2017-12-24T20:00:38.758Z,4.25
2017-12-24T20:03:13.326Z,3.55
2017-12-24T20:05:47.166Z,4.55
2017-12-24T20:08:21.707Z,4.10
2017-12-24T20:10:55.859Z,4.93
2017-12-24T20:13:29.643Z,8.48
2017-12-24T20:16:03.469Z,4.60
2017-12-24T20:18:38.208Z,4.70
2017-12-24T20:21:12.910Z,4.50
2017-12-24T20:23:47.035Z,4.15
2017-12-24T20:26:20.875Z,4.03
2017-12-24T20:28:54.848Z,4.65
2017-12-24T20:31:28.714Z,4.60
2017-12-24T20:34:02.650Z,4.75
2017-12-24T20:36:36.360Z,4.15
2017-12-24T20:39:10.181Z,4.05
2017-12-24T20:41:44.055Z,3.97
2017-12-24T20:44:18.102Z,5.18
2017-12-24T20:46:52.140Z,4.37
2017-12-24T20:49:26.859Z,4.18
2017-12-24T20:52:00.648Z,3.85
2017-12-24T20:54:34.679Z,4.05
2017-12-24T20:57:08.652Z,4.25
2017-12-24T20:59:42.521Z,5.22
2017-12-24T21:02:17.071Z,5.72
2017-12-24T21:04:51.889Z,4.55
2017-12-24T21:07:25.736Z,3.67
2017-12-24T21:10:00.513Z,4.65
2017-12-24T21:12:34.424Z,4.40
2017-12-24T21:15:09.129Z,5.03
2017-12-24T21:17:42.919Z,5.12
2017-12-24T21:20:16.808Z,7.03
2017-12-24T21:22:50.531Z,4.50
2017-12-24T21:25:24.363Z,3.90
2017-12-24T21:27:58.101Z,3.90
2017-12-24T21:30:32.067Z,3.92
2017-12-24T21:33:05.859Z,3.85
2017-12-24T21:35:39.663Z,4.55
2017-12-24T21:38:13.776Z,4.55
2017-12-24T21:40:47.599Z,3.55
2017-12-24T21:43:22.191Z,3.95
2017-12-24T21:45:56.195Z,5.00
2017-12-24T21:48:30.823Z,4.12
2017-12-24T21:51:05.455Z,4.90
2017-12-24T21:53:39.211Z,4.32
2017-12-24T21:56:13.511Z,4.97
2017-12-24T21:58:47.154Z,4.25
2017-12-24T22:01:20.942Z,4.80
2017-12-24T22:03:55.610Z,4.00
2017-12-24T22:06:29.490Z,4.90
2017-12-24T22:09:04.047Z,4.43
2017-12-24T22:11:38.513Z,4.78
2017-12-24T22:14:12.363Z,4.97
2017-12-24T22:16:46.173Z,4.72
2017-12-24T22:19:19.986Z,4.90
2017-12-24T22:21:54.119Z,4.60
2017-12-24T22:24:27.820Z,4.60
2017-12-24T22:27:01.640Z,5.53
2017-12-24T22:29:35.362Z,4.90
2017-12-24T22:32:09.530Z,4.75
2017-12-24T22:34:43.271Z,5.62
2017-12-24T22:37:17.136Z,4.90
2017-12-24T22:39:51.234Z,5.10
2017-12-24T22:42:24.995Z,5.05
2017-12-24T22:44:58.712Z,5.45
2017-12-24T22:47:32.456Z,4.50
2017-12-24T22:50:06.288Z,4.62
2017-12-24T22:52:40.777Z,5.32
2017-12-24T22:55:14.629Z,5.20
2017-12-24T22:57:48.350Z,4.50
2017-12-24T23:00:22.145Z,4.18
2017-12-24T23:02:56.005Z,4.40
2017-12-24T23:05:30.644Z,4.50
2017-12-24T23:08:04.535Z,4.20
2017-12-24T23:10:38.492Z,4.07
2017-12-24T23:13:12.465Z,4.50
2017-12-24T23:15:46.251Z,4.60
2017-12-24T23:18:20.092Z,4.97
2017-12-24T23:20:54.035Z,5.30
2017-12-24T23:23:28.634Z,10.25
2017-12-24T23:26:02.414Z,4.97
2017-12-24T23:28:37.101Z,4.68
2017-12-24T23:31:10.817Z,3.90
2017-12-24T23:33:45.424Z,4.45
2017-12-24T23:36:19.897Z,4.78
2017-12-24T23:38:53.632Z,5.45
2017-12-24T23:41:27.452Z,4.47
2017-12-24T23:44:01.039Z,5.90
2017-12-24T23:46:35.179Z,6.30
2017-12-24T23:49:08.894Z,7.40
2017-12-24T23:51:43.364Z,5.45
2017-12-24T23:54:17.290Z,6.47
2017-12-24T23:56:51.052Z,5.60
2017-12-24T23:59:25.082Z,6.45
